sensor_id;sensor_type;location;lat;lon;timestamp;P1;durP1;ratioP1;P2;durP2;ratioP2
2756;SDS011;1386;50.862;6.494;2023-07-20T00:00:54;4.60;;;2.70;;
2756;SDS011;1386;50.862;6.494;2023-07-20T00:03:23;5.43;;;2.90;;
2756;SDS011;1386;50.862;6.494;2023-07-20T00:05:50;4.53;;;2.50;;
2756;SDS011;1386;50.862;6.494;2023-07-20T00:08:17;4.03;;;3.00;;
2756;SDS011;1386;50.862;6.494;2023-07-20T00:10:45;3.70;;;2.50;;
2756;SDS011;1386;50.862;6.494;2023-07-20T00:13:15;5.53;;;2.90;;
2756;SDS011;1386;50.862;6.494;2023-07-20T00:15:49;3.60;;;2.50;;
2756;SDS011;1386;50.862;6.494;2023-07-20T00:18:27;3.70;;;2.43;;
2756;SDS011;1386;50.862;6.494;2023-07-20T00:20:56;3.83;;;2.40;;
2756;SDS011;1386;50.862;6.494;2023-07-20T00:23:24;4.50;;;2.90;;
2756;SDS011;1386;50.862;6.494;2023-07-20T00:25:53;4.77;;;2.83;;
2756;SDS011;1386;50.862;6.494;2023-07-20T00:28:20;3.63;;;2.77;;
2756;SDS011;1386;50.862;6.494;2023-07-20T00:30:47;2.83;;;2.53;;
2756;SDS011;1386;50.862;6.494;2023-07-20T00:33:16;7.30;;;2.70;;
2756;SDS011;1386;50.862;6.494;2023-07-20T00:35:51;4.40;;;3.00;;
2756;SDS011;1386;50.862;6.494;2023-07-20T00:41:10;4.43;;;2.63;;
2756;SDS011;1386;50.862;6.494;2023-07-20T00:43:40;2.87;;;2.60;;
2756;SDS011;1386;50.862;6.494;2023-07-20T00:46:10;4.80;;;3.27;;
2756;SDS011;1386;50.862;6.494;2023-07-20T00:48:37;5.27;;;2.87;;
2756;SDS011;1386;50.862;6.494;2023-07-20T00:51:04;6.93;;;3.17;;
2756;SDS011;1386;50.862;6.494;2023-07-20T00:53:34;4.33;;;2.70;;
2756;SDS011;1386;50.862;6.494;2023-07-20T00:56:06;4.70;;;3.33;;
2756;SDS011;1386;50.862;6.494;2023-07-20T00:58:36;3.80;;;2.93;;
2756;SDS011;1386;50.862;6.494;2023-07-20T01:01:04;4.97;;;3.23;;
2756;SDS011;1386;50.862;6.494;2023-07-20T01:03:31;4.60;;;3.60;;
2756;SDS011;1386;50.862;6.494;2023-07-20T01:05:59;5.13;;;3.70;;
2756;SDS011;1386;50.862;6.494;2023-07-20T01:08:36;4.67;;;3.53;;
2756;SDS011;1386;50.862;6.494;2023-07-20T01:11:10;5.50;;;3.77;;
2756;SDS011;1386;50.862;6.494;2023-07-20T01:13:42;4.30;;;3.67;;
2756;SDS011;1386;50.862;6.494;2023-07-20T01:16:09;3.93;;;2.87;;
2756;SDS011;1386;50.862;6.494;2023-07-20T01:18:36;5.40;;;3.13;;
2756;SDS011;1386;50.862;6.494;2023-07-20T01:21:17;5.40;;;3.70;;
2756;SDS011;1386;50.862;6.494;2023-07-20T01:24:00;4.50;;;3.40;;
2756;SDS011;1386;50.862;6.494;2023-07-20T01:26:52;9.07;;;4.77;;
2756;SDS011;1386;50.862;6.494;2023-07-20T01:30:02;5.10;;;3.40;;
2756;SDS011;1386;50.862;6.494;2023-07-20T01:32:38;3.87;;;3.33;;
2756;SDS011;1386;50.862;6.494;2023-07-20T01:35:08;5.77;;;3.50;;
2756;SDS011;1386;50.862;6.494;2023-07-20T01:37:47;5.37;;;3.20;;
2756;SDS011;1386;50.862;6.494;2023-07-20T01:40:17;6.30;;;3.70;;
2756;SDS011;1386;50.862;6.494;2023-07-20T01:42:59;5.10;;;3.70;;
2756;SDS011;1386;50.862;6.494;2023-07-20T01:45:26;4.47;;;3.30;;
2756;SDS011;1386;50.862;6.494;2023-07-20T01:47:57;7.57;;;3.50;;
2756;SDS011;1386;50.862;6.494;2023-07-20T01:50:24;4.60;;;3.23;;
2756;SDS011;1386;50.862;6.494;2023-07-20T01:52:51;4.20;;;3.30;;
2756;SDS011;1386;50.862;6.494;2023-07-20T01:55:17;6.67;;;4.03;;
2756;SDS011;1386;50.862;6.494;2023-07-20T01:57:44;7.87;;;2.93;;
2756;SDS011;1386;50.862;6.494;2023-07-20T02:00:12;5.17;;;3.63;;
2756;SDS011;1386;50.862;6.494;2023-07-20T02:02:39;6.10;;;3.10;;
2756;SDS011;1386;50.862;6.494;2023-07-20T02:05:07;7.50;;;3.73;;
2756;SDS011;1386;50.862;6.494;2023-07-20T02:07:37;5.63;;;3.63;;
2756;SDS011;1386;50.862;6.494;2023-07-20T02:10:07;6.80;;;2.87;;
2756;SDS011;1386;50.862;6.494;2023-07-20T02:12:34;3.77;;;3.30;;
2756;SDS011;1386;50.862;6.494;2023-07-20T02:15:01;5.70;;;3.00;;
2756;SDS011;1386;50.862;6.494;2023-07-20T02:17:28;4.57;;;3.17;;
2756;SDS011;1386;50.862;6.494;2023-07-20T02:19:55;4.70;;;3.17;;
2756;SDS011;1386;50.862;6.494;2023-07-20T02:22:24;5.10;;;3.37;;
2756;SDS011;1386;50.862;6.494;2023-07-20T02:24:51;4.60;;;2.97;;
2756;SDS011;1386;50.862;6.494;2023-07-20T02:27:18;4.93;;;3.10;;
2756;SDS011;1386;50.862;6.494;2023-07-20T02:29:50;3.97;;;3.33;;
2756;SDS011;1386;50.862;6.494;2023-07-20T02:32:17;4.07;;;3.27;;
2756;SDS011;1386;50.862;6.494;2023-07-20T02:34:46;9.77;;;3.80;;
2756;SDS011;1386;50.862;6.494;2023-07-20T02:37:13;4.00;;;3.27;;
2756;SDS011;1386;50.862;6.494;2023-07-20T02:39:41;7.40;;;3.63;;
2756;SDS011;1386;50.862;6.494;2023-07-20T02:42:11;8.10;;;3.27;;
2756;SDS011;1386;50.862;6.494;2023-07-20T02:44:38;6.53;;;3.50;;
2756;SDS011;1386;50.862;6.494;2023-07-20T02:47:05;8.87;;;3.73;;
2756;SDS011;1386;50.862;6.494;2023-07-20T02:49:34;12.00;;;3.60;;
2756;SDS011;1386;50.862;6.494;2023-07-20T02:52:01;5.00;;;3.30;;
2756;SDS011;1386;50.862;6.494;2023-07-20T02:54:28;4.90;;;2.73;;
2756;SDS011;1386;50.862;6.494;2023-07-20T02:56:57;5.93;;;3.10;;
2756;SDS011;1386;50.862;6.494;2023-07-20T02:59:26;5.20;;;3.40;;
2756;SDS011;1386;50.862;6.494;2023-07-20T03:01:55;4.80;;;3.07;;
2756;SDS011;1386;50.862;6.494;2023-07-20T03:04:22;7.00;;;3.70;;
2756;SDS011;1386;50.862;6.494;2023-07-20T03:06:51;6.33;;;3.37;;
2756;SDS011;1386;50.862;6.494;2023-07-20T03:09:18;4.93;;;3.03;;
2756;SDS011;1386;50.862;6.494;2023-07-20T03:11:45;5.10;;;3.20;;
2756;SDS011;1386;50.862;6.494;2023-07-20T03:14:13;6.27;;;3.80;;
2756;SDS011;1386;50.862;6.494;2023-07-20T03:16:40;5.60;;;3.40;;
2756;SDS011;1386;50.862;6.494;2023-07-20T03:19:07;5.43;;;3.00;;
2756;SDS011;1386;50.862;6.494;2023-07-20T03:21:38;5.17;;;3.60;;
2756;SDS011;1386;50.862;6.494;2023-07-20T03:24:06;5.37;;;3.30;;
2756;SDS011;1386;50.862;6.494;2023-07-20T03:26:33;6.07;;;3.53;;
2756;SDS011;1386;50.862;6.494;2023-07-20T03:29:00;6.30;;;3.27;;
2756;SDS011;1386;50.862;6.494;2023-07-20T03:31:34;5.00;;;3.97;;
2756;SDS011;1386;50.862;6.494;2023-07-20T03:34:01;8.10;;;4.10;;
2756;SDS011;1386;50.862;6.494;2023-07-20T03:36:28;5.47;;;3.33;;
2756;SDS011;1386;50.862;6.494;2023-07-20T03:38:56;5.40;;;3.47;;
2756;SDS011;1386;50.862;6.494;2023-07-20T03:41:23;7.67;;;3.93;;
2756;SDS011;1386;50.862;6.494;2023-07-20T03:43:50;6.10;;;3.77;;
2756;SDS011;1386;50.862;6.494;2023-07-20T03:46:16;7.00;;;3.73;;
2756;SDS011;1386;50.862;6.494;2023-07-20T03:48:49;4.80;;;3.07;;
2756;SDS011;1386;50.862;6.494;2023-07-20T03:51:16;5.47;;;3.50;;
2756;SDS011;1386;50.862;6.494;2023-07-20T03:53:45;5.73;;;3.37;;
2756;SDS011;1386;50.862;6.494;2023-07-20T03:56:12;7.63;;;3.77;;
2756;SDS011;1386;50.862;6.494;2023-07-20T03:58:39;6.43;;;3.50;;
2756;SDS011;1386;50.862;6.494;2023-07-20T04:01:06;4.90;;;3.27;;
2756;SDS011;1386;50.862;6.494;2023-07-20T04:03:33;6.50;;;3.73;;
2756;SDS011;1386;50.862;6.494;2023-07-20T04:06:02;7.60;;;3.80;;
2756;SDS011;1386;50.862;6.494;2023-07-20T04:08:35;7.40;;;3.90;;
2756;SDS011;1386;50.862;6.494;2023-07-20T04:11:02;4.93;;;3.47;;
2756;SDS011;1386;50.862;6.494;2023-07-20T04:13:29;10.70;;;4.33;;
2756;SDS011;1386;50.862;6.494;2023-07-20T04:15:58;4.83;;;3.20;;
2756;SDS011;1386;50.862;6.494;2023-07-20T04:18:30;6.53;;;3.63;;
2756;SDS011;1386;50.862;6.494;2023-07-20T04:20:56;8.40;;;3.80;;
2756;SDS011;1386;50.862;6.494;2023-07-20T04:23:25;6.10;;;3.37;;
2756;SDS011;1386;50.862;6.494;2023-07-20T04:25:52;12.10;;;4.40;;
2756;SDS011;1386;50.862;6.494;2023-07-20T04:28:22;6.00;;;4.40;;
2756;SDS011;1386;50.862;6.494;2023-07-20T04:30:49;8.20;;;4.33;;
2756;SDS011;1386;50.862;6.494;2023-07-20T04:33:16;11.50;;;4.37;;
2756;SDS011;1386;50.862;6.494;2023-07-20T04:35:47;7.90;;;4.23;;
2756;SDS011;1386;50.862;6.494;2023-07-20T04:38:15;11.23;;;4.97;;
2756;SDS011;1386;50.862;6.494;2023-07-20T04:40:45;5.47;;;3.90;;
2756;SDS011;1386;50.862;6.494;2023-07-20T04:43:12;9.40;;;4.53;;
2756;SDS011;1386;50.862;6.494;2023-07-20T04:45:48;12.30;;;5.03;;
2756;SDS011;1386;50.862;6.494;2023-07-20T04:48:17;9.20;;;5.40;;
2756;SDS011;1386;50.862;6.494;2023-07-20T04:50:58;9.30;;;4.70;;
2756;SDS011;1386;50.862;6.494;2023-07-20T04:53:25;12.33;;;5.10;;
2756;SDS011;1386;50.862;6.494;2023-07-20T04:55:53;6.60;;;4.80;;
2756;SDS011;1386;50.862;6.494;2023-07-20T04:58:20;10.00;;;5.40;;
2756;SDS011;1386;50.862;6.494;2023-07-20T05:00:47;6.80;;;5.57;;
2756;SDS011;1386;50.862;6.494;2023-07-20T05:03:14;9.43;;;5.30;;
2756;SDS011;1386;50.862;6.494;2023-07-20T05:05:41;12.63;;;5.00;;
2756;SDS011;1386;50.862;6.494;2023-07-20T05:08:08;9.73;;;4.90;;
2756;SDS011;1386;50.862;6.494;2023-07-20T05:10:35;10.83;;;4.37;;
2756;SDS011;1386;50.862;6.494;2023-07-20T05:13:07;10.33;;;5.30;;
2756;SDS011;1386;50.862;6.494;2023-07-20T05:15:34;7.87;;;5.23;;
2756;SDS011;1386;50.862;6.494;2023-07-20T05:18:01;7.10;;;4.57;;
2756;SDS011;1386;50.862;6.494;2023-07-20T05:20:28;7.27;;;5.30;;
2756;SDS011;1386;50.862;6.494;2023-07-20T05:22:56;8.53;;;5.67;;
2756;SDS011;1386;50.862;6.494;2023-07-20T05:25:23;8.70;;;4.40;;
2756;SDS011;1386;50.862;6.494;2023-07-20T05:27:50;7.23;;;4.30;;
2756;SDS011;1386;50.862;6.494;2023-07-20T05:30:19;9.83;;;3.97;;
2756;SDS011;1386;50.862;6.494;2023-07-20T05:32:50;7.67;;;4.80;;
2756;SDS011;1386;50.862;6.494;2023-07-20T05:58:27;8.57;;;6.07;;
2756;SDS011;1386;50.862;6.494;2023-07-20T06:01:03;9.80;;;5.63;;
2756;SDS011;1386;50.862;6.494;2023-07-20T06:03:33;11.83;;;5.13;;
2756;SDS011;1386;50.862;6.494;2023-07-20T06:06:05;12.47;;;5.43;;
2756;SDS011;1386;50.862;6.494;2023-07-20T06:08:35;7.50;;;5.07;;
2756;SDS011;1386;50.862;6.494;2023-07-20T06:11:06;5.30;;;4.70;;
2756;SDS011;1386;50.862;6.494;2023-07-20T06:13:33;6.00;;;4.30;;
2756;SDS011;1386;50.862;6.494;2023-07-20T06:16:00;6.93;;;5.10;;
2756;SDS011;1386;50.862;6.494;2023-07-20T06:18:28;10.80;;;5.20;;
2756;SDS011;1386;50.862;6.494;2023-07-20T06:20:58;8.37;;;6.03;;
2756;SDS011;1386;50.862;6.494;2023-07-20T06:23:27;8.77;;;7.50;;
2756;SDS011;1386;50.862;6.494;2023-07-20T06:25:56;16.80;;;10.17;;
2756;SDS011;1386;50.862;6.494;2023-07-20T06:28:26;11.20;;;7.83;;
2756;SDS011;1386;50.862;6.494;2023-07-20T06:31:09;9.07;;;7.00;;
2756;SDS011;1386;50.862;6.494;2023-07-20T06:33:36;10.40;;;6.80;;
2756;SDS011;1386;50.862;6.494;2023-07-20T06:36:08;10.53;;;8.43;;
2756;SDS011;1386;50.862;6.494;2023-07-20T06:38:35;9.07;;;6.03;;
2756;SDS011;1386;50.862;6.494;2023-07-20T06:41:03;9.63;;;5.87;;
2756;SDS011;1386;50.862;6.494;2023-07-20T06:43:39;7.70;;;5.90;;
2756;SDS011;1386;50.862;6.494;2023-07-20T06:46:06;9.73;;;5.90;;
2756;SDS011;1386;50.862;6.494;2023-07-20T06:48:41;10.33;;;5.93;;
2756;SDS011;1386;50.862;6.494;2023-07-20T06:51:10;8.00;;;6.57;;
2756;SDS011;1386;50.862;6.494;2023-07-20T06:53:37;8.37;;;5.50;;
2756;SDS011;1386;50.862;6.494;2023-07-20T06:56:05;6.73;;;5.30;;
2756;SDS011;1386;50.862;6.494;2023-07-20T06:58:31;6.73;;;5.33;;
2756;SDS011;1386;50.862;6.494;2023-07-20T07:01:00;8.60;;;5.53;;
2756;SDS011;1386;50.862;6.494;2023-07-20T07:03:32;7.63;;;5.90;;
2756;SDS011;1386;50.862;6.494;2023-07-20T07:05:59;7.63;;;5.80;;
2756;SDS011;1386;50.862;6.494;2023-07-20T07:08:26;8.43;;;5.80;;
2756;SDS011;1386;50.862;6.494;2023-07-20T07:10:53;6.77;;;4.87;;
2756;SDS011;1386;50.862;6.494;2023-07-20T07:13:21;6.07;;;5.23;;
2756;SDS011;1386;50.862;6.494;2023-07-20T07:15:48;6.10;;;5.07;;
2756;SDS011;1386;50.862;6.494;2023-07-20T07:18:15;6.90;;;5.77;;
2756;SDS011;1386;50.862;6.494;2023-07-20T07:20:49;8.53;;;5.50;;
2756;SDS011;1386;50.862;6.494;2023-07-20T07:23:17;7.40;;;5.83;;
2756;SDS011;1386;50.862;6.494;2023-07-20T07:25:44;6.27;;;5.57;;
2756;SDS011;1386;50.862;6.494;2023-07-20T07:28:11;8.10;;;5.70;;
2756;SDS011;1386;50.862;6.494;2023-07-20T07:30:39;5.33;;;4.80;;
2756;SDS011;1386;50.862;6.494;2023-07-20T07:33:06;7.00;;;5.03;;
2756;SDS011;1386;50.862;6.494;2023-07-20T07:35:33;6.67;;;4.87;;
2756;SDS011;1386;50.862;6.494;2023-07-20T07:38:00;7.33;;;4.20;;
2756;SDS011;1386;50.862;6.494;2023-07-20T07:40:29;8.00;;;4.53;;
2756;SDS011;1386;50.862;6.494;2023-07-20T07:42:56;5.13;;;4.07;;
2756;SDS011;1386;50.862;6.494;2023-07-20T07:45:23;5.03;;;3.93;;
2756;SDS011;1386;50.862;6.494;2023-07-20T07:47:51;6.07;;;4.77;;
2756;SDS011;1386;50.862;6.494;2023-07-20T07:50:18;8.20;;;3.77;;
2756;SDS011;1386;50.862;6.494;2023-07-20T07:52:45;3.80;;;3.40;;
2756;SDS011;1386;50.862;6.494;2023-07-20T07:55:14;6.50;;;3.40;;
2756;SDS011;1386;50.862;6.494;2023-07-20T07:57:42;3.70;;;2.80;;
2756;SDS011;1386;50.862;6.494;2023-07-20T08:00:12;3.77;;;3.30;;
2756;SDS011;1386;50.862;6.494;2023-07-20T08:02:40;3.80;;;3.40;;
2756;SDS011;1386;50.862;6.494;2023-07-20T08:05:09;5.27;;;3.60;;
2756;SDS011;1386;50.862;6.494;2023-07-20T08:07:41;8.37;;;4.00;;
2756;SDS011;1386;50.862;6.494;2023-07-20T08:10:08;4.20;;;2.70;;
2756;SDS011;1386;50.862;6.494;2023-07-20T08:12:35;9.23;;;4.30;;
2756;SDS011;1386;50.862;6.494;2023-07-20T08:15:02;7.40;;;3.60;;
2756;SDS011;1386;50.862;6.494;2023-07-20T08:17:29;13.23;;;9.73;;
2756;SDS011;1386;50.862;6.494;2023-07-20T08:19:56;12.50;;;9.30;;
2756;SDS011;1386;50.862;6.494;2023-07-20T08:22:24;6.33;;;4.60;;
2756;SDS011;1386;50.862;6.494;2023-07-20T08:24:51;4.40;;;3.47;;
2756;SDS011;1386;50.862;6.494;2023-07-20T08:27:18;9.90;;;8.90;;
2756;SDS011;1386;50.862;6.494;2023-07-20T08:29:44;13.20;;;10.43;;
2756;SDS011;1386;50.862;6.494;2023-07-20T08:32:11;5.93;;;4.07;;
2756;SDS011;1386;50.862;6.494;2023-07-20T08:34:39;4.00;;;3.53;;
2756;SDS011;1386;50.862;6.494;2023-07-20T08:37:10;8.47;;;5.53;;
2756;SDS011;1386;50.862;6.494;2023-07-20T08:39:38;16.90;;;13.90;;
2756;SDS011;1386;50.862;6.494;2023-07-20T08:42:11;10.47;;;7.50;;
2756;SDS011;1386;50.862;6.494;2023-07-20T08:44:41;3.90;;;3.00;;
2756;SDS011;1386;50.862;6.494;2023-07-20T08:47:10;4.00;;;2.63;;
2756;SDS011;1386;50.862;6.494;2023-07-20T08:49:40;3.53;;;2.10;;
2756;SDS011;1386;50.862;6.494;2023-07-20T08:52:07;4.73;;;1.97;;
2756;SDS011;1386;50.862;6.494;2023-07-20T08:54:35;4.77;;;2.97;;
2756;SDS011;1386;50.862;6.494;2023-07-20T08:57:04;7.40;;;2.97;;
2756;SDS011;1386;50.862;6.494;2023-07-20T08:59:34;5.83;;;2.93;;
2756;SDS011;1386;50.862;6.494;2023-07-20T09:02:04;4.47;;;2.17;;
2756;SDS011;1386;50.862;6.494;2023-07-20T09:04:31;5.40;;;2.90;;
2756;SDS011;1386;50.862;6.494;2023-07-20T09:07:06;3.40;;;1.93;;
2756;SDS011;1386;50.862;6.494;2023-07-20T09:09:33;9.07;;;3.17;;
2756;SDS011;1386;50.862;6.494;2023-07-20T09:12:14;3.90;;;2.57;;
2756;SDS011;1386;50.862;6.494;2023-07-20T09:14:42;2.83;;;2.40;;
2756;SDS011;1386;50.862;6.494;2023-07-20T09:17:12;4.23;;;2.80;;
2756;SDS011;1386;50.862;6.494;2023-07-20T09:19:44;3.53;;;2.47;;
2756;SDS011;1386;50.862;6.494;2023-07-20T09:22:12;2.57;;;1.93;;
2756;SDS011;1386;50.862;6.494;2023-07-20T09:24:39;2.27;;;1.90;;
2756;SDS011;1386;50.862;6.494;2023-07-20T09:27:08;3.40;;;1.90;;
2756;SDS011;1386;50.862;6.494;2023-07-20T09:29:40;47.67;;;10.93;;
2756;SDS011;1386;50.862;6.494;2023-07-20T09:32:17;5.37;;;2.37;;
2756;SDS011;1386;50.862;6.494;2023-07-20T09:34:54;3.80;;;2.10;;
2756;SDS011;1386;50.862;6.494;2023-07-20T09:37:21;5.17;;;2.20;;
2756;SDS011;1386;50.862;6.494;2023-07-20T09:39:58;5.00;;;2.70;;
2756;SDS011;1386;50.862;6.494;2023-07-20T09:42:30;4.23;;;2.50;;
2756;SDS011;1386;50.862;6.494;2023-07-20T09:44:59;2.40;;;1.70;;
2756;SDS011;1386;50.862;6.494;2023-07-20T09:47:26;6.87;;;2.90;;
2756;SDS011;1386;50.862;6.494;2023-07-20T09:50:00;2.80;;;2.47;;
2756;SDS011;1386;50.862;6.494;2023-07-20T09:52:27;2.47;;;2.10;;
2756;SDS011;1386;50.862;6.494;2023-07-20T09:54:59;3.33;;;2.40;;
2756;SDS011;1386;50.862;6.494;2023-07-20T09:57:27;3.00;;;2.57;;
2756;SDS011;1386;50.862;6.494;2023-07-20T10:00:04;7.43;;;6.40;;
2756;SDS011;1386;50.862;6.494;2023-07-20T10:02:39;4.07;;;2.80;;
2756;SDS011;1386;50.862;6.494;2023-07-20T10:05:10;2.47;;;2.17;;
2756;SDS011;1386;50.862;6.494;2023-07-20T10:07:47;3.60;;;3.00;;
2756;SDS011;1386;50.862;6.494;2023-07-20T10:13:10;3.60;;;3.30;;
2756;SDS011;1386;50.862;6.494;2023-07-20T10:15:49;4.30;;;2.33;;
2756;SDS011;1386;50.862;6.494;2023-07-20T10:18:17;3.17;;;2.07;;
2756;SDS011;1386;50.862;6.494;2023-07-20T10:20:51;3.67;;;2.10;;
2756;SDS011;1386;50.862;6.494;2023-07-20T10:23:25;2.40;;;2.07;;
2756;SDS011;1386;50.862;6.494;2023-07-20T10:26:01;3.30;;;2.33;;
2756;SDS011;1386;50.862;6.494;2023-07-20T10:28:28;3.23;;;2.10;;
2756;SDS011;1386;50.862;6.494;2023-07-20T10:30:56;3.23;;;2.57;;
2756;SDS011;1386;50.862;6.494;2023-07-20T10:33:23;7.27;;;5.33;;
2756;SDS011;1386;50.862;6.494;2023-07-20T10:35:51;5.97;;;4.80;;
2756;SDS011;1386;50.862;6.494;2023-07-20T10:38:33;3.10;;;2.80;;
2756;SDS011;1386;50.862;6.494;2023-07-20T10:41:04;3.63;;;2.40;;
2756;SDS011;1386;50.862;6.494;2023-07-20T10:43:42;2.90;;;2.60;;
2756;SDS011;1386;50.862;6.494;2023-07-20T10:46:16;5.57;;;4.17;;
2756;SDS011;1386;50.862;6.494;2023-07-20T10:49:26;3.40;;;2.73;;
2756;SDS011;1386;50.862;6.494;2023-07-20T10:51:56;3.77;;;2.33;;
2756;SDS011;1386;50.862;6.494;2023-07-20T10:54:34;2.67;;;2.00;;
2756;SDS011;1386;50.862;6.494;2023-07-20T10:57:24;4.10;;;2.33;;
2756;SDS011;1386;50.862;6.494;2023-07-20T11:00:07;4.93;;;2.00;;
2756;SDS011;1386;50.862;6.494;2023-07-20T11:02:44;2.20;;;1.73;;
2756;SDS011;1386;50.862;6.494;2023-07-20T11:08:05;1.97;;;1.53;;
2756;SDS011;1386;50.862;6.494;2023-07-20T11:10:38;2.10;;;1.83;;
2756;SDS011;1386;50.862;6.494;2023-07-20T11:13:21;3.17;;;1.90;;
2756;SDS011;1386;50.862;6.494;2023-07-20T11:16:02;2.20;;;1.80;;
2756;SDS011;1386;50.862;6.494;2023-07-20T11:18:35;5.63;;;3.53;;
2756;SDS011;1386;50.862;6.494;2023-07-20T11:21:06;6.07;;;5.13;;
2756;SDS011;1386;50.862;6.494;2023-07-20T11:23:39;4.57;;;4.17;;
2756;SDS011;1386;50.862;6.494;2023-07-20T11:26:06;2.67;;;2.20;;
2756;SDS011;1386;50.862;6.494;2023-07-20T11:28:34;2.50;;;1.83;;
2756;SDS011;1386;50.862;6.494;2023-07-20T11:31:01;3.30;;;2.30;;
2756;SDS011;1386;50.862;6.494;2023-07-20T11:33:28;1.97;;;1.67;;
2756;SDS011;1386;50.862;6.494;2023-07-20T11:35:59;2.20;;;1.80;;
2756;SDS011;1386;50.862;6.494;2023-07-20T11:38:26;3.03;;;1.60;;
2756;SDS011;1386;50.862;6.494;2023-07-20T11:40:53;2.50;;;1.80;;
2756;SDS011;1386;50.862;6.494;2023-07-20T11:43:20;2.37;;;1.70;;
2756;SDS011;1386;50.862;6.494;2023-07-20T11:45:48;4.23;;;1.80;;
2756;SDS011;1386;50.862;6.494;2023-07-20T11:48:15;3.60;;;1.80;;
2756;SDS011;1386;50.862;6.494;2023-07-20T11:50:42;2.00;;;1.60;;
2756;SDS011;1386;50.862;6.494;2023-07-20T11:53:10;2.03;;;1.60;;
2756;SDS011;1386;50.862;6.494;2023-07-20T11:55:38;3.10;;;1.70;;
2756;SDS011;1386;50.862;6.494;2023-07-20T11:58:06;2.50;;;1.80;;
2756;SDS011;1386;50.862;6.494;2023-07-20T12:00:34;2.17;;;1.60;;
2756;SDS011;1386;50.862;6.494;2023-07-20T12:03:04;2.07;;;1.70;;
2756;SDS011;1386;50.862;6.494;2023-07-20T12:05:37;3.47;;;1.87;;
2756;SDS011;1386;50.862;6.494;2023-07-20T12:08:04;5.30;;;4.23;;
2756;SDS011;1386;50.862;6.494;2023-07-20T12:10:32;4.80;;;4.27;;
2756;SDS011;1386;50.862;6.494;2023-07-20T12:13:01;2.70;;;1.80;;
2756;SDS011;1386;50.862;6.494;2023-07-20T12:15:29;3.23;;;2.00;;
2756;SDS011;1386;50.862;6.494;2023-07-20T12:17:57;2.57;;;1.80;;
2756;SDS011;1386;50.862;6.494;2023-07-20T12:20:26;2.00;;;1.80;;
2756;SDS011;1386;50.862;6.494;2023-07-20T12:22:55;3.93;;;1.90;;
2756;SDS011;1386;50.862;6.494;2023-07-20T12:25:33;3.10;;;1.80;;
2756;SDS011;1386;50.862;6.494;2023-07-20T12:28:00;2.07;;;1.57;;
2756;SDS011;1386;50.862;6.494;2023-07-20T12:30:28;2.40;;;1.80;;
2756;SDS011;1386;50.862;6.494;2023-07-20T12:32:55;2.00;;;1.80;;
2756;SDS011;1386;50.862;6.494;2023-07-20T12:35:22;2.37;;;1.97;;
2756;SDS011;1386;50.862;6.494;2023-07-20T12:37:49;3.00;;;1.83;;
2756;SDS011;1386;50.862;6.494;2023-07-20T12:40:16;3.00;;;1.90;;
2756;SDS011;1386;50.862;6.494;2023-07-20T12:42:44;2.33;;;2.13;;
2756;SDS011;1386;50.862;6.494;2023-07-20T12:45:11;2.70;;;1.70;;
2756;SDS011;1386;50.862;6.494;2023-07-20T12:47:39;8.37;;;1.70;;
2756;SDS011;1386;50.862;6.494;2023-07-20T12:50:07;2.50;;;1.60;;
2756;SDS011;1386;50.862;6.494;2023-07-20T12:52:35;3.07;;;1.60;;
2756;SDS011;1386;50.862;6.494;2023-07-20T12:55:03;2.60;;;1.90;;
2756;SDS011;1386;50.862;6.494;2023-07-20T12:57:31;5.23;;;1.60;;
2756;SDS011;1386;50.862;6.494;2023-07-20T13:00:00;2.23;;;1.80;;
2756;SDS011;1386;50.862;6.494;2023-07-20T13:02:28;3.30;;;1.57;;
2756;SDS011;1386;50.862;6.494;2023-07-20T13:04:56;2.27;;;1.80;;
2756;SDS011;1386;50.862;6.494;2023-07-20T13:07:38;2.37;;;2.00;;
2756;SDS011;1386;50.862;6.494;2023-07-20T13:10:11;3.10;;;1.93;;
2756;SDS011;1386;50.862;6.494;2023-07-20T13:12:44;1.70;;;1.60;;
2756;SDS011;1386;50.862;6.494;2023-07-20T13:18:11;10.13;;;8.40;;
2756;SDS011;1386;50.862;6.494;2023-07-20T13:20:41;7.60;;;6.10;;
2756;SDS011;1386;50.862;6.494;2023-07-20T13:23:08;4.90;;;3.83;;
2756;SDS011;1386;50.862;6.494;2023-07-20T13:25:38;4.80;;;3.70;;
2756;SDS011;1386;50.862;6.494;2023-07-20T13:28:07;3.40;;;2.27;;
2756;SDS011;1386;50.862;6.494;2023-07-20T13:30:34;2.33;;;2.03;;
2756;SDS011;1386;50.862;6.494;2023-07-20T13:33:02;3.63;;;2.47;;
2756;SDS011;1386;50.862;6.494;2023-07-20T13:35:29;2.00;;;1.80;;
2756;SDS011;1386;50.862;6.494;2023-07-20T13:38:00;2.30;;;1.97;;
2756;SDS011;1386;50.862;6.494;2023-07-20T13:40:51;3.00;;;2.00;;
2756;SDS011;1386;50.862;6.494;2023-07-20T13:43:18;3.33;;;2.00;;
2756;SDS011;1386;50.862;6.494;2023-07-20T13:45:45;3.30;;;1.90;;
2756;SDS011;1386;50.862;6.494;2023-07-20T13:48:13;2.90;;;2.10;;
2756;SDS011;1386;50.862;6.494;2023-07-20T13:50:43;3.10;;;1.70;;
2756;SDS011;1386;50.862;6.494;2023-07-20T13:53:16;5.10;;;2.00;;
2756;SDS011;1386;50.862;6.494;2023-07-20T13:55:52;4.47;;;2.00;;
2756;SDS011;1386;50.862;6.494;2023-07-20T13:58:19;2.20;;;1.80;;
2756;SDS011;1386;50.862;6.494;2023-07-20T14:00:46;2.47;;;1.83;;
2756;SDS011;1386;50.862;6.494;2023-07-20T14:03:14;5.10;;;2.83;;
2756;SDS011;1386;50.862;6.494;2023-07-20T14:05:41;4.50;;;1.73;;
2756;SDS011;1386;50.862;6.494;2023-07-20T14:08:09;4.53;;;2.17;;
2756;SDS011;1386;50.862;6.494;2023-07-20T14:10:36;1.90;;;1.50;;
2756;SDS011;1386;50.862;6.494;2023-07-20T14:13:05;2.13;;;1.70;;
2756;SDS011;1386;50.862;6.494;2023-07-20T14:15:33;2.50;;;1.87;;
2756;SDS011;1386;50.862;6.494;2023-07-20T14:18:01;1.83;;;1.40;;
2756;SDS011;1386;50.862;6.494;2023-07-20T14:20:32;6.60;;;1.70;;
2756;SDS011;1386;50.862;6.494;2023-07-20T14:22:58;2.80;;;1.80;;
2756;SDS011;1386;50.862;6.494;2023-07-20T14:25:25;1.97;;;1.67;;
2756;SDS011;1386;50.862;6.494;2023-07-20T14:27:52;2.83;;;2.10;;
2756;SDS011;1386;50.862;6.494;2023-07-20T14:30:20;3.87;;;2.10;;
2756;SDS011;1386;50.862;6.494;2023-07-20T14:32:56;4.37;;;1.77;;
2756;SDS011;1386;50.862;6.494;2023-07-20T14:35:33;2.13;;;1.60;;
2756;SDS011;1386;50.862;6.494;2023-07-20T14:38:01;2.60;;;1.90;;
2756;SDS011;1386;50.862;6.494;2023-07-20T14:40:29;2.80;;;1.60;;
2756;SDS011;1386;50.862;6.494;2023-07-20T14:42:56;6.70;;;1.60;;
2756;SDS011;1386;50.862;6.494;2023-07-20T14:45:28;2.53;;;1.90;;
2756;SDS011;1386;50.862;6.494;2023-07-20T14:47:58;1.90;;;1.70;;
2756;SDS011;1386;50.862;6.494;2023-07-20T14:50:25;1.70;;;1.50;;
2756;SDS011;1386;50.862;6.494;2023-07-20T14:52:53;1.87;;;1.70;;
2756;SDS011;1386;50.862;6.494;2023-07-20T14:55:20;2.37;;;1.73;;
2756;SDS011;1386;50.862;6.494;2023-07-20T14:57:47;4.27;;;1.50;;
2756;SDS011;1386;50.862;6.494;2023-07-20T15:00:14;2.33;;;1.43;;
2756;SDS011;1386;50.862;6.494;2023-07-20T15:02:42;2.60;;;1.90;;
2756;SDS011;1386;50.862;6.494;2023-07-20T15:05:09;2.53;;;1.40;;
2756;SDS011;1386;50.862;6.494;2023-07-20T15:07:36;1.63;;;1.53;;
2756;SDS011;1386;50.862;6.494;2023-07-20T15:10:13;2.73;;;1.43;;
2756;SDS011;1386;50.862;6.494;2023-07-20T15:13:09;2.43;;;1.40;;
2756;SDS011;1386;50.862;6.494;2023-07-20T15:15:36;2.20;;;1.63;;
2756;SDS011;1386;50.862;6.494;2023-07-20T15:18:03;1.60;;;1.30;;
2756;SDS011;1386;50.862;6.494;2023-07-20T15:20:30;1.80;;;1.50;;
2756;SDS011;1386;50.862;6.494;2023-07-20T15:22:58;1.40;;;1.27;;
2756;SDS011;1386;50.862;6.494;2023-07-20T15:25:31;2.87;;;1.73;;
2756;SDS011;1386;50.862;6.494;2023-07-20T15:28:21;2.17;;;1.40;;
2756;SDS011;1386;50.862;6.494;2023-07-20T15:30:58;1.43;;;1.33;;
2756;SDS011;1386;50.862;6.494;2023-07-20T15:33:26;1.50;;;1.30;;
2756;SDS011;1386;50.862;6.494;2023-07-20T15:35:53;1.80;;;1.40;;
2756;SDS011;1386;50.862;6.494;2023-07-20T15:38:20;2.40;;;1.57;;
2756;SDS011;1386;50.862;6.494;2023-07-20T15:40:51;2.27;;;1.70;;
2756;SDS011;1386;50.862;6.494;2023-07-20T15:43:19;7.43;;;2.00;;
2756;SDS011;1386;50.862;6.494;2023-07-20T15:45:46;2.67;;;1.60;;
2756;SDS011;1386;50.862;6.494;2023-07-20T15:48:21;3.10;;;1.20;;
2756;SDS011;1386;50.862;6.494;2023-07-20T15:50:59;2.60;;;1.30;;
2756;SDS011;1386;50.862;6.494;2023-07-20T15:53:27;1.47;;;1.37;;
2756;SDS011;1386;50.862;6.494;2023-07-20T15:55:59;2.23;;;1.40;;
2756;SDS011;1386;50.862;6.494;2023-07-20T15:58:43;1.70;;;1.40;;
2756;SDS011;1386;50.862;6.494;2023-07-20T16:01:13;2.40;;;1.87;;
2756;SDS011;1386;50.862;6.494;2023-07-20T16:04:15;1.77;;;1.27;;
2756;SDS011;1386;50.862;6.494;2023-07-20T16:07:24;2.13;;;1.40;;